Time;durP1;ratioP1;P1;durP2;ratioP2;P2;SDS_P1;SDS_P2;PMS_P1;PMS_P2;Temp;Humidity;BMP_temperature;BMP_pressure;BME280_temperature;BME280_humidity;BME280_pressure;Samples;Min_cycle;Max_cycle;Signal;HPM_P1;HPM_P2
2021/12/22 00:00:16;;;;;;;30.17;18.33;;;-5.40;99.90;;;;;;4986317;28;20034;-74
2021/12/22 00:02:48;;;;;;;27.02;17.77;;;-5.30;99.90;;;;;;4986507;28;20030;-74
2021/12/22 00:05:27;;;;;;;30.02;18.13;;;-5.10;99.90;;;;;;4982816;28;20027;-75
2021/12/22 00:07:53;;;;;;;25.58;21.75;;;-5.10;99.90;;;;;;4971736;28;20575;-74
2021/12/22 00:10:21;;;;;;;28.83;17.95;;;-5.10;99.90;;;;;;4972918;28;20042;-75
2021/12/22 00:12:49;;;;;;;27.35;17.48;;;-5.00;99.90;;;;;;4973455;28;20055;-76
2021/12/22 00:15:14;;;;;;;29.35;17.92;;;-5.10;99.90;;;;;;4971489;28;20533;-74
2021/12/22 00:17:40;;;;;;;28.35;17.45;;;-5.10;99.90;;;;;;4972900;28;20031;-74
2021/12/22 00:20:08;;;;;;;27.38;18.27;;;-5.20;99.90;;;;;;4982649;28;20366;-75
2021/12/22 00:22:34;;;;;;;27.42;17.33;;;-5.40;99.90;;;;;;4984105;28;20030;-73
2021/12/22 00:25:00;;;;;;;25.00;21.88;;;-5.40;99.90;;;;;;4972628;28;20114;-74
2021/12/22 00:27:26;;;;;;;28.80;18.38;;;-5.50;99.90;;;;;;4971455;28;20461;-74
2021/12/22 00:29:52;;;;;;;28.17;17.00;;;-5.70;99.90;;;;;;4973632;28;20037;-74
2021/12/22 00:32:19;;;;;;;24.75;16.95;;;-5.80;99.90;;;;;;4978223;28;20053;-74
2021/12/22 00:34:52;;;;;;;29.48;17.60;;;-5.80;99.90;;;;;;4983305;28;20049;-74
2021/12/22 00:37:21;;;;;;;29.33;18.30;;;-5.70;99.90;;;;;;4971480;28;20129;-74
2021/12/22 00:39:47;;;;;;;26.13;16.70;;;-5.80;99.90;;;;;;4972653;28;20031;-74
2021/12/22 00:42:14;;;;;;;28.23;17.50;;;-5.90;99.90;;;;;;4972330;28;20029;-73
2021/12/22 00:44:41;;;;;;;29.27;17.00;;;-5.90;99.90;;;;;;4972391;28;20057;-75
2021/12/22 00:47:06;;;;;;;24.02;16.17;;;-5.80;99.90;;;;;;4975917;28;20567;-74
2021/12/22 00:49:33;;;;;;;28.23;16.70;;;-5.80;99.90;;;;;;4983399;28;20117;-73
2021/12/22 00:51:59;;;;;;;26.42;15.38;;;-5.90;99.90;;;;;;4982080;28;20476;-73
2021/12/22 00:54:24;;;;;;;25.55;15.38;;;-5.80;99.90;;;;;;4970995;28;20019;-73
2021/12/22 00:56:50;;;;;;;25.40;16.40;;;-5.80;99.90;;;;;;4975039;28;20030;-73
2021/12/22 00:59:18;;;;;;;25.52;16.63;;;-5.80;99.90;;;;;;4989976;28;20036;-72
2021/12/22 01:01:45;;;;;;;27.45;17.17;;;-5.70;99.90;;;;;;4989283;28;20439;-73
2021/12/22 01:04:11;;;;;;;26.75;17.17;;;-5.80;99.90;;;;;;4982558;28;20035;-73
2021/12/22 01:06:36;;;;;;;28.77;18.35;;;-5.90;99.90;;;;;;4976246;28;20093;-73
2021/12/22 01:09:04;;;;;;;27.70;17.35;;;-5.90;99.90;;;;;;4976161;28;20168;-73
2021/12/22 01:11:30;;;;;;;28.42;17.15;;;-6.00;99.90;;;;;;4974634;28;20073;-74
2021/12/22 01:13:56;;;;;;;26.60;16.38;;;-5.90;99.90;;;;;;4975956;28;20054;-75
2021/12/22 01:16:22;;;;;;;25.40;16.52;;;-5.90;99.90;;;;;;4976039;28;20030;-75
2021/12/22 01:18:47;;;;;;;25.38;15.13;;;-5.80;99.90;;;;;;4974862;28;20027;-75
2021/12/22 01:21:20;;;;;;;25.52;15.57;;;-5.70;99.90;;;;;;4990708;28;20033;-75
2021/12/22 01:24:10;;;;;;;23.73;14.25;;;-5.70;99.90;;;;;;4986431;28;20429;-75
2021/12/22 01:26:41;;;;;;;25.90;15.70;;;-5.80;99.90;;;;;;4983860;28;20082;-75
2021/12/22 01:29:06;;;;;;;31.98;15.60;;;-5.90;99.90;;;;;;4976220;28;20042;-75
2021/12/22 01:31:32;;;;;;;25.65;15.45;;;-5.90;99.90;;;;;;4974103;28;20026;-75
2021/12/22 01:33:57;;;;;;;24.02;14.88;;;-5.90;99.90;;;;;;4991610;28;20019;-74
2021/12/22 01:36:23;;;;;;;30.15;18.20;;;-5.80;99.90;;;;;;4989566;28;20385;-75
2021/12/22 01:38:49;;;;;;;29.27;18.40;;;-5.80;99.90;;;;;;4983944;28;20018;-74
2021/12/22 01:41:15;;;;;;;29.08;17.27;;;-5.80;99.90;;;;;;4981434;28;20129;-74
2021/12/22 01:43:40;;;;;;;26.77;16.65;;;-5.90;99.90;;;;;;4984851;28;20448;-74
2021/12/22 01:46:30;;;;;;;27.60;16.30;;;-5.90;99.90;;;;;;4974063;28;20061;-74
2021/12/22 01:49:09;;;;;;;27.88;16.50;;;-5.90;99.90;;;;;;4974323;28;20037;-75
2021/12/22 01:51:41;;;;;;;22.42;14.43;;;-5.90;99.90;;;;;;4965749;28;20023;-74
2021/12/22 01:54:37;;;;;;;31.15;15.35;;;-6.00;99.90;;;;;;4975689;28;20023;-74
2021/12/22 01:57:09;;;;;;;24.70;14.88;;;-6.00;99.90;;;;;;4975677;28;20018;-74
2021/12/22 01:59:34;;;;;;;23.08;14.35;;;-6.00;99.90;;;;;;4974295;28;20027;-74
2021/12/22 02:02:01;;;;;;;23.02;15.32;;;-6.00;99.90;;;;;;4974096;28;20110;-74
2021/12/22 02:04:26;;;;;;;23.90;15.27;;;-6.00;99.90;;;;;;4974142;28;20029;-75
2021/12/22 02:06:52;;;;;;;25.65;14.30;;;-6.00;99.90;;;;;;4974189;28;20117;-75
2021/12/22 02:09:38;;;;;;;24.67;14.45;;;-6.10;99.90;;;;;;4974530;28;20027;-74
2021/12/22 02:12:06;;;;;;;24.00;14.50;;;-6.20;99.90;;;;;;4975229;28;20033;-75
2021/12/22 02:14:32;;;;;;;22.48;14.27;;;-6.20;99.90;;;;;;4975232;28;20015;-74
2021/12/22 02:16:57;;;;;;;24.83;14.85;;;-6.30;99.90;;;;;;4975268;28;20097;-74
2021/12/22 02:19:23;;;;;;;23.23;14.35;;;-6.30;99.90;;;;;;4975165;28;20363;-74
2021/12/22 02:21:54;;;;;;;20.60;14.07;;;-6.30;99.90;;;;;;4973857;28;20122;-74
2021/12/22 02:24:19;;;;;;;22.52;14.43;;;-6.30;99.90;;;;;;4975139;28;20030;-74
2021/12/22 02:26:54;;;;;;;22.60;14.48;;;-6.30;99.90;;;;;;4975019;28;20033;-75
2021/12/22 02:29:22;;;;;;;22.85;13.98;;;-6.20;99.90;;;;;;4973677;28;20117;-74
2021/12/22 02:32:03;;;;;;;21.70;13.93;;;-6.30;99.90;;;;;;4986594;28;20022;-75
2021/12/22 02:34:32;;;;;;;23.42;13.75;;;-6.30;99.90;;;;;;4973593;28;20039;-75
2021/12/22 02:37:02;;;;;;;23.08;14.45;;;-6.40;99.90;;;;;;4974904;28;20015;-75
2021/12/22 02:39:27;;;;;;;21.63;13.50;;;-6.40;99.90;;;;;;4974844;28;20045;-75
2021/12/22 02:41:53;;;;;;;21.05;13.95;;;-6.40;99.90;;;;;;4974999;28;20528;-75
2021/12/22 02:44:18;;;;;;;24.00;14.48;;;-6.30;99.90;;;;;;4990024;28;20026;-74
2021/12/22 02:46:44;;;;;;;21.85;14.02;;;-6.30;99.90;;;;;;4993863;28;20134;-74
2021/12/22 02:49:09;;;;;;;21.17;13.85;;;-6.40;99.90;;;;;;4984576;28;20086;-74
2021/12/22 02:51:36;;;;;;;23.77;14.82;;;-6.40;99.90;;;;;;4980443;28;20592;-74
2021/12/22 02:56:50;;;;;;;22.65;14.20;;;-6.40;99.90;;;;;;4974878;28;20031;-75
2021/12/22 02:59:42;;;;;;;23.52;13.35;;;-6.40;99.90;;;;;;4974372;28;20097;-74
2021/12/22 03:04:43;;;;;;;25.25;14.55;;;-6.60;99.90;;;;;;4974343;28;20549;-75
2021/12/22 03:07:16;;;;;;;21.67;14.43;;;-6.50;99.90;;;;;;4973960;28;20393;-75
2021/12/22 03:09:43;;;;;;;23.67;13.48;;;-6.50;99.90;;;;;;4984282;28;20033;-75
2021/12/22 03:12:11;;;;;;;22.25;13.95;;;-6.40;99.90;;;;;;4983530;28;20042;-74
2021/12/22 03:14:37;;;;;;;22.33;14.00;;;-6.50;99.90;;;;;;4984883;28;20084;-74
2021/12/22 03:17:03;;;;;;;23.23;13.77;;;-6.60;99.90;;;;;;4972974;28;20118;-74
2021/12/22 03:19:34;;;;;;;22.25;13.32;;;-6.60;99.90;;;;;;4973958;28;20030;-74
2021/12/22 03:22:03;;;;;;;20.90;13.23;;;-6.60;99.90;;;;;;4973876;28;20027;-74
2021/12/22 03:24:31;;;;;;;22.98;13.68;;;-6.70;99.90;;;;;;4979626;28;20034;-74
2021/12/22 03:27:01;;;;;;;22.25;13.68;;;-6.70;99.90;;;;;;4988244;28;20029;-74
2021/12/22 03:29:28;;;;;;;23.25;14.30;;;-6.70;99.90;;;;;;4977060;28;20417;-74
2021/12/22 03:31:54;;;;;;;23.48;13.75;;;-6.70;99.90;;;;;;4973640;28;20027;-73
2021/12/22 03:34:19;;;;;;;24.55;14.60;;;-6.60;99.90;;;;;;4973290;28;20030;-74
2021/12/22 03:36:45;;;;;;;31.65;15.18;;;-6.60;99.90;;;;;;4973508;28;20030;-75
2021/12/22 03:39:13;;;;;;;29.70;18.10;;;-6.60;99.90;;;;;;4972211;28;20035;-75
2021/12/22 03:41:39;;;;;;;30.90;17.48;;;-6.60;99.90;;;;;;4972383;28;20027;-75
2021/12/22 03:44:06;;;;;;;25.90;16.20;;;-6.60;99.90;;;;;;4973069;28;20110;-75
2021/12/22 03:46:32;;;;;;;22.70;14.60;;;-6.60;99.90;;;;;;4972237;28;20396;-75
2021/12/22 03:48:58;;;;;;;24.08;13.77;;;-6.70;99.90;;;;;;4973639;28;20082;-75
2021/12/22 03:51:25;;;;;;;22.33;13.27;;;-6.80;99.90;;;;;;4971982;28;20018;-75
2021/12/22 03:53:51;;;;;;;23.40;14.15;;;-6.80;99.90;;;;;;4972772;28;20557;-74
2021/12/22 03:56:16;;;;;;;23.48;14.10;;;-6.70;99.90;;;;;;4979161;28;20093;-74
2021/12/22 03:58:42;;;;;;;22.13;13.80;;;-6.70;99.90;;;;;;4984014;28;20105;-73
2021/12/22 04:01:07;;;;;;;24.30;14.27;;;-6.70;99.90;;;;;;4983096;28;20628;-74
2021/12/22 04:03:35;;;;;;;21.33;13.95;;;-6.80;99.90;;;;;;4976660;28;20027;-74
2021/12/22 04:06:01;;;;;;;23.48;13.93;;;-6.80;99.90;;;;;;4975042;28;20451;-74
2021/12/22 04:08:27;;;;;;;21.52;13.57;;;-6.90;99.90;;;;;;4982198;28;20034;-74
2021/12/22 04:10:53;;;;;;;22.73;14.00;;;-6.80;99.90;;;;;;4972933;28;20026;-75
2021/12/22 04:13:19;;;;;;;23.70;14.90;;;-6.80;99.90;;;;;;4971650;28;20470;-75
2021/12/22 04:15:45;;;;;;;24.20;14.98;;;-6.80;99.90;;;;;;4972852;28;20018;-74
2021/12/22 04:18:12;;;;;;;25.83;15.73;;;-6.80;99.90;;;;;;4971709;28;20507;-75
2021/12/22 04:20:37;;;;;;;26.83;15.52;;;-6.80;99.90;;;;;;4980164;28;20034;-74
2021/12/22 04:23:04;;;;;;;27.23;15.00;;;-6.90;99.90;;;;;;4992248;28;20377;-74
2021/12/22 04:25:30;;;;;;;25.52;15.45;;;-6.80;99.90;;;;;;4983463;28;20030;-75
2021/12/22 04:28:04;;;;;;;24.00;14.73;;;-6.80;99.90;;;;;;4971424;28;20121;-74
2021/12/22 04:30:32;;;;;;;24.08;14.60;;;-6.90;99.90;;;;;;4971492;28;20023;-73
2021/12/22 04:32:59;;;;;;;32.00;16.27;;;-6.90;99.90;;;;;;4971045;28;20391;-74
2021/12/22 04:35:24;;;;;;;25.48;15.65;;;-6.80;99.90;;;;;;4972528;28;20503;-74
2021/12/22 04:37:50;;;;;;;25.95;14.98;;;-6.90;99.90;;;;;;4976198;28;20026;-74
2021/12/22 04:40:15;;;;;;;24.75;14.50;;;-6.90;99.90;;;;;;4984980;28;20030;-73
2021/12/22 04:42:42;;;;;;;22.67;13.93;;;-7.00;99.90;;;;;;4984423;28;20022;-72
2021/12/22 04:45:09;;;;;;;26.27;15.88;;;-7.00;99.90;;;;;;4981721;28;20022;-72
2021/12/22 04:47:36;;;;;;;24.23;14.90;;;-7.10;99.90;;;;;;4989586;28;20026;-73
2021/12/22 04:50:08;;;;;;;25.67;15.43;;;-7.10;99.90;;;;;;4979719;28;20664;-73
2021/12/22 04:52:41;;;;;;;25.38;14.95;;;-7.30;99.90;;;;;;4985505;28;20019;-72
2021/12/22 04:55:07;;;;;;;27.20;14.95;;;-7.30;99.90;;;;;;4990877;28;20113;-72
2021/12/22 04:57:33;;;;;;;24.10;14.50;;;-7.30;99.90;;;;;;4979615;28;20019;-73
2021/12/22 05:00:00;;;;;;;24.40;15.30;;;-7.20;99.90;;;;;;4980612;28;20053;-73
2021/12/22 05:02:26;;;;;;;25.77;15.38;;;-7.20;99.90;;;;;;4977072;28;20117;-73
2021/12/22 05:04:52;;;;;;;24.88;15.40;;;-7.20;99.90;;;;;;4988619;28;20548;-73
2021/12/22 05:07:17;;;;;;;23.38;13.77;;;-7.20;99.90;;;;;;4973964;28;20034;-74
2021/12/22 05:09:43;;;;;;;25.52;15.10;;;-7.10;99.90;;;;;;4984250;28;20045;-73
2021/12/22 05:12:09;;;;;;;24.08;14.95;;;-7.10;99.90;;;;;;4986897;28;20382;-73
2021/12/22 05:14:34;;;;;;;26.50;14.93;;;-7.30;99.90;;;;;;4982853;28;20077;-73
2021/12/22 05:17:02;;;;;;;27.27;15.15;;;-7.30;99.90;;;;;;4979107;28;20018;-73
2021/12/22 05:19:28;;;;;;;26.58;15.05;;;-7.30;99.90;;;;;;4979013;28;20113;-73
2021/12/22 05:21:55;;;;;;;31.60;16.67;;;-7.10;99.90;;;;;;4985460;28;20478;-74
2021/12/22 05:24:21;;;;;;;26.55;15.60;;;-7.20;99.90;;;;;;4984207;28;20023;-74
2021/12/22 05:26:47;;;;;;;24.85;15.57;;;-7.30;99.90;;;;;;4973651;28;20122;-74
2021/12/22 05:29:13;;;;;;;25.67;15.65;;;-7.20;99.90;;;;;;4984328;28;20113;-73
2021/12/22 05:31:39;;;;;;;28.65;16.08;;;-7.20;99.90;;;;;;4974433;28;20031;-73
2021/12/22 05:34:04;;;;;;;25.20;15.43;;;-7.20;99.90;;;;;;4974672;28;20019;-73
2021/12/22 05:36:30;;;;;;;28.08;16.30;;;-7.30;99.90;;;;;;4986836;28;20085;-73
2021/12/22 05:38:56;;;;;;;29.17;16.70;;;-7.20;99.90;;;;;;4979845;28;20456;-73
2021/12/22 05:41:22;;;;;;;34.40;17.67;;;-7.20;99.90;;;;;;4977812;28;20496;-73
2021/12/22 05:43:47;;;;;;;30.02;16.90;;;-7.20;99.90;;;;;;4978523;28;20496;-74
2021/12/22 05:46:13;;;;;;;27.20;16.63;;;-7.20;99.90;;;;;;4988685;28;20039;-73
2021/12/22 05:48:38;;;;;;;27.33;15.85;;;-7.30;99.90;;;;;;4987279;28;20054;-74
2021/12/22 05:51:04;;;;;;;29.67;17.33;;;-7.20;99.90;;;;;;4980602;28;20027;-74
2021/12/22 05:53:30;;;;;;;31.48;18.17;;;-7.30;99.90;;;;;;4981930;28;20027;-73
2021/12/22 05:55:56;;;;;;;30.13;18.35;;;-7.40;99.90;;;;;;4988456;28;20075;-73
2021/12/22 05:58:23;;;;;;;35.25;19.73;;;-7.40;99.90;;;;;;4987445;28;20030;-74
2021/12/22 06:00:49;;;;;;;28.38;17.55;;;-7.50;99.90;;;;;;4981721;28;20473;-74
2021/12/22 06:03:14;;;;;;;26.85;17.40;;;-7.70;99.90;;;;;;4994933;28;20052;-74
2021/12/22 06:05:41;;;;;;;29.33;18.08;;;-7.60;99.90;;;;;;4975831;28;20030;-73
2021/12/22 06:08:07;;;;;;;25.58;22.75;;;-7.60;99.90;;;;;;4975215;28;20123;-74
2021/12/22 06:10:34;;;;;;;30.08;18.30;;;-7.70;99.90;;;;;;4988380;28;20027;-74
2021/12/22 06:13:09;;;;;;;31.83;18.45;;;-7.60;99.90;;;;;;4993533;28;20023;-74
2021/12/22 06:15:36;;;;;;;34.42;19.40;;;-7.60;99.90;;;;;;4970437;28;20054;-73
2021/12/22 06:18:03;;;;;;;34.08;18.95;;;-7.50;99.90;;;;;;4981226;28;20023;-74
2021/12/22 06:20:30;;;;;;;36.30;21.15;;;-7.50;99.90;;;;;;4982861;28;20081;-74
2021/12/22 06:22:56;;;;;;;32.28;18.90;;;-7.60;99.90;;;;;;4988193;28;20026;-72
2021/12/22 06:25:22;;;;;;;30.50;17.60;;;-7.80;99.90;;;;;;4982637;28;20034;-73
2021/12/22 06:27:48;;;;;;;30.35;18.75;;;-7.80;99.90;;;;;;4981439;28;20019;-73
2021/12/22 06:30:13;;;;;;;30.58;18.33;;;-7.70;99.90;;;;;;4993006;28;20026;-73
2021/12/22 06:32:39;;;;;;;32.33;18.85;;;-7.70;99.90;;;;;;4981059;28;20039;-74
2021/12/22 06:35:06;;;;;;;33.95;21.48;;;-7.60;99.90;;;;;;4986450;28;20062;-74
2021/12/22 06:37:31;;;;;;;34.65;21.10;;;-7.50;99.90;;;;;;4987731;28;20030;-73
2021/12/22 06:39:57;;;;;;;33.95;20.08;;;-7.50;99.90;;;;;;4982555;28;20030;-73
2021/12/22 06:42:23;;;;;;;41.33;25.02;;;-7.60;99.90;;;;;;4978308;28;20023;-74
2021/12/22 06:44:49;;;;;;;33.65;20.38;;;-7.50;99.90;;;;;;4982240;28;20030;-74
2021/12/22 06:47:15;;;;;;;33.25;20.10;;;-7.50;99.90;;;;;;4979778;28;20030;-73
2021/12/22 06:49:41;;;;;;;38.70;21.67;;;-7.60;99.90;;;;;;4992720;28;20064;-74
2021/12/22 06:52:06;;;;;;;37.17;22.90;;;-7.60;99.90;;;;;;4987565;28;20129;-74
2021/12/22 06:54:32;;;;;;;38.60;22.13;;;-7.60;99.90;;;;;;4981123;28;20527;-74
2021/12/22 06:56:58;;;;;;;41.10;23.40;;;-7.60;99.90;;;;;;4978962;28;20027;-74
2021/12/22 06:59:23;;;;;;;37.75;23.98;;;-7.70;99.90;;;;;;4974623;28;20519;-74
2021/12/22 07:01:50;;;;;;;43.10;25.77;;;-7.60;99.90;;;;;;4992606;28;20033;-74
2021/12/22 07:04:19;;;;;;;41.85;25.20;;;-7.50;99.90;;;;;;4986306;28;20030;-74
2021/12/22 07:06:45;;;;;;;42.13;25.42;;;-7.50;99.90;;;;;;4975389;28;20023;-75
2021/12/22 07:09:12;;;;;;;38.45;22.75;;;-7.40;99.90;;;;;;4982096;28;20488;-74
2021/12/22 07:11:38;;;;;;;40.30;24.20;;;-7.30;99.90;;;;;;4980476;28;20038;-74
2021/12/22 07:14:07;;;;;;;41.95;24.73;;;-7.20;99.90;;;;;;4984075;28;20023;-74
2021/12/22 07:16:33;;;;;;;37.63;23.10;;;-7.40;99.90;;;;;;4986132;28;20033;-74
2021/12/22 07:18:58;;;;;;;38.63;21.77;;;-7.40;99.90;;;;;;4982508;28;20117;-73
2021/12/22 07:21:24;;;;;;;37.17;21.90;;;-7.40;99.90;;;;;;4977242;28;20442;-74
2021/12/22 07:23:50;;;;;;;38.80;21.65;;;-7.40;99.90;;;;;;4980669;28;20031;-73
2021/12/22 07:26:16;;;;;;;36.25;22.70;;;-7.40;99.90;;;;;;4980048;28;20093;-74
2021/12/22 07:28:47;;;;;;;35.15;22.13;;;-7.40;99.90;;;;;;4984109;28;20512;-73
2021/12/22 07:31:14;;;;;;;37.47;22.13;;;-7.30;99.90;;;;;;4985199;28;20018;-74
2021/12/22 07:33:55;;;;;;;33.97;20.55;;;-7.30;99.90;;;;;;4991910;28;20033;-75
2021/12/22 07:36:21;;;;;;;34.38;21.50;;;-7.20;99.90;;;;;;4980231;28;20084;-74
2021/12/22 07:38:58;;;;;;;29.95;19.55;;;-7.20;99.90;;;;;;4982354;28;20489;-74
2021/12/22 07:41:24;;;;;;;32.30;20.70;;;-7.10;99.90;;;;;;4986895;28;20034;-75
2021/12/22 07:43:50;;;;;;;36.83;21.35;;;-7.20;99.90;;;;;;4985935;28;20030;-76
2021/12/22 07:46:15;;;;;;;39.10;23.70;;;-7.40;99.90;;;;;;4979815;28;20026;-76
2021/12/22 07:48:41;;;;;;;40.95;24.90;;;-7.30;99.90;;;;;;4979768;28;20031;-76
2021/12/22 07:51:06;;;;;;;39.97;24.10;;;-7.30;99.90;;;;;;4977994;28;20054;-75
2021/12/22 07:53:32;;;;;;;33.50;21.23;;;-7.20;99.90;;;;;;4979248;28;20019;-76
2021/12/22 07:55:57;;;;;;;37.72;22.42;;;-7.10;99.90;;;;;;4976206;28;20057;-76
2021/12/22 07:58:24;;;;;;;33.40;21.02;;;-7.10;99.90;;;;;;4975382;28;20027;-75
2021/12/22 08:00:51;;;;;;;34.85;21.02;;;-7.10;99.90;;;;;;4990707;28;20050;-76
2021/12/22 08:03:17;;;;;;;36.08;21.90;;;-7.10;99.90;;;;;;4980584;28;20029;-76
2021/12/22 08:05:43;;;;;;;36.13;21.08;;;-7.10;99.90;;;;;;4990250;28;20022;-75
2021/12/22 08:08:09;;;;;;;34.45;21.88;;;-7.10;99.90;;;;;;4978158;28;20089;-75
2021/12/22 08:10:35;;;;;;;36.40;20.63;;;-7.10;99.90;;;;;;4985947;28;20034;-74
2021/12/22 08:13:01;;;;;;;37.15;22.42;;;-7.10;99.90;;;;;;4984813;28;20046;-74
2021/12/22 08:15:27;;;;;;;51.90;29.63;;;-7.10;99.90;;;;;;4979430;28;20481;-74
2021/12/22 08:17:53;;;;;;;49.38;27.50;;;-6.90;99.90;;;;;;4979809;28;20119;-75
2021/12/22 08:20:19;;;;;;;45.38;26.08;;;-6.80;99.90;;;;;;4978763;28;20029;-75
2021/12/22 08:22:45;;;;;;;42.95;26.67;;;-6.90;99.90;;;;;;4973034;28;20389;-74
2021/12/22 08:25:11;;;;;;;52.05;29.65;;;-6.80;99.90;;;;;;4971521;28;20022;-72
2021/12/22 08:27:36;;;;;;;54.90;30.30;;;-6.80;99.90;;;;;;4985664;28;20031;-75
2021/12/22 08:30:03;;;;;;;42.45;25.52;;;-6.60;99.90;;;;;;4979458;28;20042;-75
2021/12/22 08:32:29;;;;;;;45.92;26.05;;;-6.60;99.90;;;;;;4978236;28;20385;-74
2021/12/22 08:34:56;;;;;;;69.45;38.42;;;-6.70;99.90;;;;;;4992501;28;20026;-74
2021/12/22 08:40:14;;;;;;;79.22;43.00;;;-6.60;99.90;;;;;;4982187;28;20045;-75
2021/12/22 08:42:41;;;;;;;97.43;51.78;;;-6.50;99.90;;;;;;4978998;28;20031;-75
2021/12/22 08:45:07;;;;;;;91.20;49.38;;;-6.40;99.90;;;;;;4982568;28;20030;-75
2021/12/22 08:47:33;;;;;;;85.78;48.70;;;-6.30;99.90;;;;;;4979324;28;20026;-77
2021/12/22 08:49:59;;;;;;;76.95;46.42;;;-6.20;99.90;;;;;;4980858;28;20154;-75
2021/12/22 08:52:24;;;;;;;76.85;43.63;;;-6.10;99.90;;;;;;4985733;28;20473;-75
2021/12/22 08:54:50;;;;;;;58.08;34.85;;;-6.10;99.90;;;;;;4972872;28;20042;-75
2021/12/22 08:57:16;;;;;;;56.72;32.38;;;-6.00;99.90;;;;;;4971465;28;20033;-75
2021/12/22 08:59:41;;;;;;;50.40;28.95;;;-5.90;99.90;;;;;;4981048;28;20037;-75
2021/12/22 09:02:07;;;;;;;42.25;25.13;;;-5.90;99.90;;;;;;4974828;28;20118;-74
2021/12/22 09:04:33;;;;;;;37.28;23.58;;;-5.80;99.90;;;;;;4972570;28;20034;-75
2021/12/22 09:06:58;;;;;;;38.67;23.95;;;-5.80;99.90;;;;;;4988532;28;20034;-75
2021/12/22 09:09:24;;;;;;;38.53;22.77;;;-5.80;99.90;;;;;;4982543;28;20026;-74
2021/12/22 09:11:50;;;;;;;39.90;24.38;;;-5.80;99.90;;;;;;4985733;28;20035;-74
2021/12/22 09:14:18;;;;;;;37.05;23.40;;;-5.70;99.90;;;;;;4981820;28;20117;-74
2021/12/22 09:16:43;;;;;;;39.05;23.02;;;-5.70;99.90;;;;;;4977704;28;20018;-74
2021/12/22 09:19:09;;;;;;;44.75;25.30;;;-5.60;99.90;;;;;;4984149;28;20041;-75
2021/12/22 09:21:36;;;;;;;42.80;24.60;;;-5.50;99.90;;;;;;4987957;28;20031;-74
2021/12/22 09:24:03;;;;;;;42.65;24.40;;;-5.40;99.90;;;;;;4984391;28;20029;-75
2021/12/22 09:26:28;;;;;;;36.92;23.70;;;-5.40;99.90;;;;;;4982461;28;20034;-75
2021/12/22 09:28:57;;;;;;;39.88;24.95;;;-5.30;99.90;;;;;;4986055;28;20094;-75
2021/12/22 09:31:23;;;;;;;41.42;25.60;;;-5.20;99.90;;;;;;4978850;28;20026;-74
2021/12/22 09:33:49;;;;;;;40.67;25.25;;;-5.20;99.90;;;;;;4984368;28;20102;-74
2021/12/22 09:36:15;;;;;;;38.83;25.15;;;-5.10;99.90;;;;;;4986903;28;20030;-75
2021/12/22 09:38:41;;;;;;;43.30;26.13;;;-5.00;99.90;;;;;;4985544;28;20038;-75
2021/12/22 09:41:08;;;;;;;46.03;28.65;;;-5.00;99.90;;;;;;4992114;28;20041;-75
2021/12/22 09:43:34;;;;;;;46.03;28.23;;;-4.90;99.90;;;;;;4985384;28;20030;-75
2021/12/22 09:46:02;;;;;;;49.88;29.23;;;-4.80;99.90;;;;;;4988009;28;20032;-75
2021/12/22 09:53:29;;;;;;;40.05;26.20;;;-4.80;99.90;;;;;;4984190;28;20139;-75
2021/12/22 09:55:56;;;;;;;44.28;30.25;;;-4.60;99.90;;;;;;4993713;28;20029;-75
2021/12/22 09:58:22;;;;;;;41.72;27.45;;;-4.60;99.90;;;;;;4983117;28;20027;-75
2021/12/22 10:00:49;;;;;;;37.78;24.58;;;-4.50;99.90;;;;;;4974216;28;20034;-75
2021/12/22 10:03:16;;;;;;;38.40;25.67;;;-4.50;99.90;;;;;;4986537;28;20073;-75
2021/12/22 10:05:43;;;;;;;31.17;27.98;;;-4.50;99.90;;;;;;4981511;28;20045;-75
2021/12/22 10:08:26;;;;;;;38.55;23.90;;;-4.30;99.90;;;;;;4982856;28;20031;-75
2021/12/22 10:11:07;;;;;;;39.28;25.38;;;-4.30;99.90;;;;;;4970872;28;20085;-75
2021/12/22 10:13:33;;;;;;;38.20;24.27;;;-4.20;99.90;;;;;;4981630;28;20032;-75
2021/12/22 10:16:08;;;;;;;40.13;25.65;;;-4.10;99.90;;;;;;4983992;28;20141;-75
2021/12/22 10:18:34;;;;;;;38.10;25.40;;;-4.10;99.90;;;;;;4983426;28;20039;-74
2021/12/22 10:21:12;;;;;;;35.35;23.38;;;-3.90;99.90;;;;;;4985579;28;20041;-76
2021/12/22 10:23:43;;;;;;;37.78;24.15;;;-3.90;99.90;;;;;;4981386;28;20034;-76
2021/12/22 10:26:09;;;;;;;35.08;23.25;;;-3.80;99.90;;;;;;4994543;28;20034;-76
2021/12/22 10:28:46;;;;;;;33.70;21.50;;;-3.80;99.90;;;;;;4977522;28;20023;-74
2021/12/22 10:31:12;;;;;;;33.17;21.90;;;-3.80;99.90;;;;;;4988288;28;20031;-76
2021/12/22 10:33:40;;;;;;;36.97;23.77;;;-3.80;99.90;;;;;;4986886;28;20015;-76
2021/12/22 10:36:17;;;;;;;34.13;22.30;;;-3.70;99.90;;;;;;4975948;28;20029;-75
2021/12/22 10:39:00;;;;;;;33.75;22.27;;;-3.70;99.90;;;;;;4984852;28;20485;-75
2021/12/22 10:41:31;;;;;;;30.85;21.92;;;-3.60;99.90;;;;;;4986647;28;20045;-76
2021/12/22 10:43:58;;;;;;;29.73;25.42;;;-3.50;99.90;;;;;;4986380;28;20117;-75
2021/12/22 10:46:32;;;;;;;32.60;27.58;;;-3.40;99.90;;;;;;4981222;28;20081;-74
2021/12/22 10:49:19;;;;;;;32.25;28.80;;;-3.30;99.90;;;;;;4979491;28;20026;-74
2021/12/22 10:51:55;;;;;;;33.40;28.27;;;-3.20;99.90;;;;;;4984047;28;20018;-75
2021/12/22 10:54:33;;;;;;;37.70;24.33;;;-3.20;99.90;;;;;;4978011;28;20048;-75
2021/12/22 10:57:00;;;;;;;30.67;25.65;;;-3.20;99.90;;;;;;4980635;28;20106;-75
2021/12/22 10:59:26;;;;;;;30.77;26.98;;;-3.20;99.90;;;;;;4986511;28;20034;-76
2021/12/22 11:01:58;;;;;;;37.67;23.40;;;-3.20;99.90;;;;;;4971398;28;20019;-76
2021/12/22 11:04:29;;;;;;;28.75;25.38;;;-3.20;99.90;;;;;;4979074;28;20038;-76
2021/12/22 11:07:04;;;;;;;37.22;25.33;;;-3.10;99.90;;;;;;4987158;28;20033;-76
2021/12/22 11:09:34;;;;;;;31.73;27.30;;;-3.00;99.90;;;;;;4979945;28;20472;-75
2021/12/22 11:12:00;;;;;;;34.22;25.20;;;-3.00;99.90;;;;;;4984083;28;20043;-76
2021/12/22 11:14:27;;;;;;;33.58;28.50;;;-2.80;99.90;;;;;;4993160;28;20370;-75
2021/12/22 11:17:09;;;;;;;32.28;27.00;;;-2.80;99.90;;;;;;4973386;28;20046;-75
2021/12/22 11:19:57;;;;;;;35.20;23.75;;;-2.80;99.90;;;;;;4977497;28;20484;-76
2021/12/22 11:22:40;;;;;;;31.58;26.70;;;-2.80;99.90;;;;;;4968845;28;20073;-76
2021/12/22 11:25:11;;;;;;;32.47;28.92;;;-2.60;99.90;;;;;;4979558;28;20110;-75
2021/12/22 11:27:37;;;;;;;31.45;26.85;;;-2.50;99.90;;;;;;4972619;28;20030;-75
2021/12/22 11:30:03;;;;;;;32.65;28.52;;;-2.50;99.90;;;;;;4982963;28;20426;-76
2021/12/22 11:32:31;;;;;;;33.83;27.00;;;-2.40;99.90;;;;;;4972291;28;20069;-76
2021/12/22 11:35:06;;;;;;;29.00;26.00;;;-2.50;99.90;;;;;;4976742;28;20077;-76
2021/12/22 11:37:32;;;;;;;28.88;25.02;;;-2.40;99.90;;;;;;4975247;28;20077;-76
2021/12/22 11:39:59;;;;;;;30.35;26.60;;;-2.60;99.90;;;;;;4973551;28;20073;-76
2021/12/22 11:42:28;;;;;;;27.65;24.65;;;-2.50;99.90;;;;;;4981571;28;20026;-76
2021/12/22 11:44:59;;;;;;;28.33;25.27;;;-2.50;99.90;;;;;;4973397;28;20030;-76
2021/12/22 11:47:24;;;;;;;28.70;25.52;;;-2.40;99.90;;;;;;4976305;28;20497;-74
2021/12/22 11:49:58;;;;;;;31.13;27.80;;;-2.30;99.90;;;;;;4992305;28;20030;-76
2021/12/22 11:52:32;;;;;;;30.02;25.25;;;-2.20;99.90;;;;;;4978715;28;20075;-76
2021/12/22 11:55:05;;;;;;;27.90;24.85;;;-2.20;99.90;;;;;;4981683;28;20030;-76
2021/12/22 11:57:30;;;;;;;29.45;25.60;;;-2.00;99.90;;;;;;4988323;28;20026;-74
2021/12/22 11:59:56;;;;;;;28.02;25.00;;;-2.10;99.90;;;;;;4973423;28;20396;-74
2021/12/22 12:02:33;;;;;;;26.70;23.52;;;-2.00;99.90;;;;;;4976624;28;20033;-76
2021/12/22 12:05:19;;;;;;;26.83;24.00;;;-2.00;99.90;;;;;;4978581;28;20113;-76
2021/12/22 12:07:49;;;;;;;26.73;23.70;;;-1.80;99.90;;;;;;4970161;28;20164;-75
2021/12/22 12:10:41;;;;;;;26.40;22.02;;;-1.80;99.90;;;;;;4979644;28;20483;-74
2021/12/22 12:13:21;;;;;;;28.13;25.00;;;-1.70;99.90;;;;;;4979759;28;20038;-74
2021/12/22 12:21:51;;;;;;;24.77;22.08;;;-1.50;99.90;;;;;;4979569;28;20036;-74
2021/12/22 12:24:41;;;;;;;25.05;22.02;;;-1.30;99.90;;;;;;4981330;28;20027;-75
2021/12/22 12:27:36;;;;;;;22.15;19.95;;;-1.30;99.90;;;;;;4969476;28;20034;-76
2021/12/22 12:30:12;;;;;;;24.13;21.55;;;-1.30;99.90;;;;;;4978931;28;20026;-75
2021/12/22 12:32:40;;;;;;;24.33;21.73;;;-1.20;99.90;;;;;;4979059;28;20131;-75
2021/12/22 12:35:23;;;;;;;24.15;20.58;;;-1.30;99.90;;;;;;4985367;28;20081;-76
2021/12/22 12:38:17;;;;;;;23.23;20.73;;;-1.20;99.90;;;;;;4972871;28;20019;-76
2021/12/22 12:40:57;;;;;;;22.88;20.42;;;-1.20;99.90;;;;;;4985560;28;20019;-76
2021/12/22 12:43:48;;;;;;;22.38;19.98;;;-1.20;99.90;;;;;;4984120;28;20022;-76
2021/12/22 12:48:47;;;;;;;22.15;19.85;;;-1.00;99.90;;;;;;4984382;28;20065;-76
2021/12/22 12:51:30;;;;;;;20.90;18.80;;;-1.00;99.90;;;;;;4968073;28;20029;-76
2021/12/22 12:54:01;;;;;;;23.48;19.42;;;-1.00;99.90;;;;;;4981189;28;20027;-76
2021/12/22 12:56:36;;;;;;;22.13;19.73;;;-0.90;99.90;;;;;;4986736;28;20062;-76